createdAt,value
2022-08-07T00:01:43.937Z,20.30
2022-08-07T00:04:05.869Z,20.00
2022-08-07T00:06:33.979Z,20.20
2022-08-07T00:09:16.788Z,20.00
2022-08-07T00:11:55.442Z,20.10
2022-08-07T00:14:25.260Z,20.10
2022-08-07T00:16:52.907Z,20.10
2022-08-07T00:19:21.739Z,20.10
2022-08-07T00:21:56.245Z,20.00
2022-08-07T00:24:24.533Z,20.00
2022-08-07T00:27:06.465Z,19.80
2022-08-07T00:29:37.207Z,19.70
2022-08-07T00:32:05.921Z,19.60
2022-08-07T00:34:35.542Z,19.60
2022-08-07T00:37:05.026Z,19.50
2022-08-07T00:39:32.999Z,19.50
2022-08-07T00:42:01.973Z,19.40
2022-08-07T00:44:33.019Z,19.30
2022-08-07T00:48:07.662Z,19.40
2022-08-07T00:50:21.132Z,19.30
2022-08-07T00:52:40.699Z,19.10
2022-08-07T00:55:10.748Z,19.00
2022-08-07T00:57:37.958Z,19.00
2022-08-07T01:00:22.144Z,19.00
2022-08-07T01:02:57.242Z,19.00
2022-08-07T01:05:26.392Z,19.10
2022-08-07T01:07:56.910Z,19.00
2022-08-07T01:10:24.235Z,18.90
2022-08-07T01:12:54.096Z,19.00
2022-08-07T01:15:35.873Z,18.80
2022-08-07T01:18:11.196Z,18.80
2022-08-07T01:20:57.404Z,18.70
2022-08-07T01:23:38.559Z,18.80
2022-08-07T01:26:12.097Z,18.70
2022-08-07T01:28:41.759Z,18.70
2022-08-07T01:31:15.483Z,18.70
2022-08-07T01:33:55.625Z,18.80
2022-08-07T01:36:33.971Z,18.70
2022-08-07T01:39:09.775Z,18.70
2022-08-07T01:41:40.940Z,18.60
2022-08-07T01:44:26.191Z,18.50
2022-08-07T01:46:53.410Z,18.60
2022-08-07T01:49:21.414Z,18.50
2022-08-07T01:52:03.255Z,18.50
2022-08-07T01:54:37.494Z,18.60
2022-08-07T01:57:24.718Z,18.50
2022-08-07T02:00:13.329Z,18.30
2022-08-07T02:03:18.803Z,18.20
2022-08-07T02:05:59.357Z,18.20
2022-08-07T02:08:29.472Z,18.10
2022-08-07T02:10:59.521Z,18.10
2022-08-07T02:13:58.168Z,18.10
2022-08-07T02:16:28.372Z,18.10
2022-08-07T02:19:05.363Z,18.20
2022-08-07T02:21:55.505Z,18.20
2022-08-07T02:24:25.291Z,18.30
2022-08-07T02:27:00.125Z,18.20
2022-08-07T02:29:30.579Z,18.10
2022-08-07T02:32:00.147Z,18.30
2022-08-07T02:34:28.800Z,18.20
2022-08-07T02:36:57.977Z,18.10
2022-08-07T02:39:43.132Z,18.00
2022-08-07T02:42:14.849Z,17.90
2022-08-07T02:44:48.249Z,17.90
2022-08-07T02:47:19.435Z,17.90
2022-08-07T02:49:58.428Z,17.80
2022-08-07T02:52:33.013Z,17.70
2022-08-07T02:55:28.047Z,17.70
2022-08-07T02:58:03.614Z,17.70
2022-08-07T03:00:34.112Z,17.60
2022-08-07T03:03:06.097Z,17.80
2022-08-07T03:05:37.226Z,17.70
2022-08-07T03:08:10.274Z,17.50
2022-08-07T03:10:40.742Z,17.30
2022-08-07T03:13:19.434Z,17.40
2022-08-07T03:15:58.377Z,17.30
2022-08-07T03:18:34.618Z,17.30
2022-08-07T03:21:08.173Z,17.10
2022-08-07T03:24:17.603Z,17.20
2022-08-07T03:26:26.701Z,17.30
2022-08-07T03:28:55.528Z,17.20
2022-08-07T03:31:24.452Z,17.30
2022-08-07T03:34:01.684Z,17.20
2022-08-07T03:36:30.725Z,17.20
2022-08-07T03:39:07.439Z,17.10
2022-08-07T03:41:42.126Z,17.20
2022-08-07T03:44:15.237Z,17.00
2022-08-07T03:47:13.248Z,17.00
2022-08-07T03:49:30.421Z,17.10
2022-08-07T03:52:01.471Z,18.70
2022-08-07T03:54:35.980Z,16.90
2022-08-07T03:58:32.707Z,17.00
2022-08-07T04:00:05.249Z,17.10
2022-08-07T04:02:33.101Z,16.90
2022-08-07T04:05:00.093Z,16.80
2022-08-07T04:07:41.655Z,16.80
2022-08-07T04:10:15.708Z,16.90
2022-08-07T04:12:47.970Z,16.70
2022-08-07T04:15:15.984Z,16.80
2022-08-07T04:18:57.425Z,17.10
2022-08-07T04:20:35.324Z,16.90
2022-08-07T04:23:06.140Z,16.90
2022-08-07T04:25:39.164Z,16.80
2022-08-07T04:28:08.228Z,16.70
2022-08-07T04:30:43.600Z,16.90
2022-08-07T04:33:24.275Z,16.90
2022-08-07T04:35:53.969Z,16.70
2022-08-07T04:38:22.132Z,16.90
2022-08-07T04:40:51.680Z,16.90
2022-08-07T04:44:12.335Z,17.00
2022-08-07T04:46:59.622Z,17.00
2022-08-07T04:50:04.189Z,16.90
2022-08-07T04:52:31.765Z,16.90
2022-08-07T04:58:11.763Z,16.80
2022-08-07T04:58:38.737Z,16.80
2022-08-07T05:01:18.306Z,16.90
2022-08-07T05:04:06.483Z,16.90
2022-08-07T05:06:59.139Z,17.30
2022-08-07T05:10:10.961Z,17.50
2022-08-07T05:14:44.362Z,17.50
2022-08-07T05:15:53.643Z,17.70
2022-08-07T05:18:34.198Z,17.60
2022-08-07T05:21:04.640Z,17.70
2022-08-07T05:23:45.809Z,17.80
2022-08-07T05:26:23.938Z,18.00
2022-08-07T05:28:57.755Z,18.00
2022-08-07T05:31:35.319Z,17.90
2022-08-07T05:34:11.234Z,18.00
2022-08-07T05:36:41.950Z,18.00
2022-08-07T05:40:06.030Z,18.10
2022-08-07T05:42:02.291Z,18.20
2022-08-07T05:44:34.586Z,18.30
2022-08-07T05:47:18.357Z,18.20
2022-08-07T05:49:50.577Z,18.20
2022-08-07T05:52:20.120Z,18.30
2022-08-07T05:54:55.321Z,18.50
2022-08-07T05:57:26.631Z,18.60
2022-08-07T06:00:00.283Z,18.70
2022-08-07T06:02:32.925Z,18.70
2022-08-07T06:05:08.038Z,18.60
2022-08-07T06:08:13.536Z,18.60
2022-08-07T06:10:26.397Z,18.60
2022-08-07T06:12:53.669Z,18.70
2022-08-07T06:15:39.055Z,19.10
2022-08-07T06:18:12.195Z,19.50
2022-08-07T06:20:51.165Z,19.90
2022-08-07T06:23:46.294Z,20.10
2022-08-07T06:26:18.040Z,20.10
2022-08-07T06:28:57.915Z,20.50
2022-08-07T06:31:47.065Z,20.60
2022-08-07T06:34:13.348Z,20.70
2022-08-07T06:36:40.169Z,20.90
2022-08-07T06:40:16.702Z,21.00
2022-08-07T06:42:03.553Z,21.20
2022-08-07T06:44:36.525Z,21.30
2022-08-07T06:47:10.577Z,21.50
2022-08-07T06:49:52.465Z,21.50
2022-08-07T06:52:31.672Z,21.40
2022-08-07T06:55:33.101Z,21.50
2022-08-07T06:58:04.511Z,21.60
2022-08-07T07:00:36.655Z,22.20
2022-08-07T07:03:08.868Z,22.70
2022-08-07T07:06:05.474Z,23.20
2022-08-07T07:08:28.786Z,23.10
2022-08-07T07:10:57.085Z,22.60
2022-08-07T07:13:55.723Z,23.00
2022-08-07T07:16:30.898Z,23.50
2022-08-07T07:19:40.997Z,26.90
2022-08-07T07:22:11.900Z,29.20
2022-08-07T07:24:43.133Z,29.20
2022-08-07T07:27:35.243Z,27.30
2022-08-07T07:30:09.836Z,30.00
2022-08-07T07:32:40.809Z,32.00
2022-08-07T07:35:12.007Z,30.60
2022-08-07T07:37:47.246Z,29.60
2022-08-07T07:40:22.042Z,32.00
2022-08-07T07:42:55.509Z,34.20
2022-08-07T07:46:53.642Z,33.50
2022-08-07T07:48:35.101Z,32.90
2022-08-07T07:51:08.124Z,33.50
2022-08-07T07:53:52.077Z,34.50
2022-08-07T07:56:30.265Z,35.50
2022-08-07T07:59:01.718Z,36.50
2022-08-07T08:02:03.731Z,36.90
2022-08-07T08:04:20.235Z,37.80
2022-08-07T08:06:53.907Z,38.00
2022-08-07T08:09:25.204Z,38.30
2022-08-07T08:12:01.644Z,39.00
2022-08-07T08:14:36.111Z,39.30
2022-08-07T08:17:55.676Z,39.10
2022-08-07T08:20:18.117Z,38.50
2022-08-07T08:23:08.313Z,38.60
2022-08-07T08:25:56.889Z,39.30
2022-08-07T08:28:38.622Z,39.40
2022-08-07T08:31:14.735Z,38.60
2022-08-07T08:33:49.558Z,38.50
2022-08-07T08:36:29.782Z,38.50
2022-08-07T08:39:02.019Z,39.00
2022-08-07T08:41:58.776Z,38.80
2022-08-07T08:44:52.896Z,39.00
2022-08-07T08:47:29.551Z,39.20
2022-08-07T08:50:04.925Z,39.00
2022-08-07T08:52:40.734Z,38.70
2022-08-07T08:55:55.556Z,38.30
2022-08-07T08:58:28.845Z,39.20
2022-08-07T09:01:15.904Z,38.90
2022-08-07T09:03:53.025Z,38.80
2022-08-07T09:06:40.201Z,39.20
2022-08-07T09:09:36.449Z,40.00
2022-08-07T09:12:30.955Z,40.00
2022-08-07T09:16:21.702Z,38.50
2022-08-07T09:18:09.918Z,37.40
2022-08-07T09:21:00.760Z,37.70
2022-08-07T09:24:30.927Z,38.90
2022-08-07T09:27:12.071Z,39.40
2022-08-07T09:30:04.787Z,38.80
2022-08-07T09:32:43.712Z,38.50
2022-08-07T09:36:03.506Z,38.10
2022-08-07T09:38:31.420Z,37.80
2022-08-07T09:41:36.393Z,37.50
2022-08-07T09:44:58.696Z,37.60
2022-08-07T09:48:03.732Z,38.60
2022-08-07T09:50:52.227Z,38.50
2022-08-07T09:53:23.310Z,37.70
2022-08-07T09:56:37.634Z,37.90
2022-08-07T09:59:35.855Z,38.60
2022-08-07T10:02:31.652Z,38.60
2022-08-07T10:05:15.150Z,36.90
2022-08-07T10:08:01.252Z,35.90
2022-08-07T10:11:58.963Z,35.80
2022-08-07T10:14:01.632Z,34.80
2022-08-07T10:16:47.807Z,33.80
2022-08-07T10:19:22.749Z,33.40
2022-08-07T10:22:16.119Z,33.10
2022-08-07T10:25:03.355Z,32.10
2022-08-07T10:28:07.863Z,31.00
2022-08-07T10:30:49.508Z,30.30
2022-08-07T10:34:14.583Z,30.10
2022-08-07T10:36:58.364Z,30.20
2022-08-07T10:39:42.144Z,29.90
2022-08-07T10:42:41.212Z,30.10
2022-08-07T10:45:44.031Z,30.00
2022-08-07T10:48:35.569Z,29.70
2022-08-07T10:51:39.177Z,29.30
2022-08-07T10:54:35.341Z,29.10
2022-08-07T10:57:26.293Z,29.00
2022-08-07T11:00:39.662Z,29.20
2022-08-07T11:03:20.250Z,29.10
2022-08-07T11:06:03.024Z,29.10
2022-08-07T11:08:54.539Z,29.10
2022-08-07T11:11:29.654Z,29.30
2022-08-07T11:14:43.718Z,29.30
2022-08-07T11:17:01.294Z,29.50
2022-08-07T11:19:45.441Z,29.50
2022-08-07T11:22:37.215Z,29.50
2022-08-07T11:25:31.097Z,29.50
2022-08-07T11:28:17.691Z,29.70
2022-08-07T11:31:02.780Z,29.60
2022-08-07T11:33:59.580Z,29.60
2022-08-07T11:36:39.283Z,29.50
2022-08-07T11:40:01.108Z,29.30
2022-08-07T11:42:53.020Z,29.20
2022-08-07T11:45:40.658Z,29.70
2022-08-07T11:49:27.630Z,30.00
2022-08-07T11:52:01.841Z,29.90
2022-08-07T11:54:30.027Z,29.70
2022-08-07T11:57:20.604Z,29.40
2022-08-07T12:00:19.084Z,29.30
2022-08-07T12:02:53.695Z,29.20
2022-08-07T12:05:47.252Z,29.30
2022-08-07T12:08:25.711Z,29.30
2022-08-07T12:11:21.102Z,29.30
2022-08-07T12:14:19.009Z,29.30
2022-08-07T12:16:58.638Z,29.30
2022-08-07T12:19:56.366Z,29.30
2022-08-07T12:22:39.125Z,29.40
2022-08-07T12:26:05.528Z,29.40
2022-08-07T12:28:57.582Z,29.50
2022-08-07T12:31:53.291Z,30.00
2022-08-07T12:34:26.687Z,30.30
2022-08-07T12:36:56.327Z,30.60
2022-08-07T12:39:43.663Z,30.60
2022-08-07T12:42:13.509Z,30.80
2022-08-07T12:44:47.481Z,30.90
2022-08-07T12:47:30.996Z,31.10
2022-08-07T12:50:33.819Z,30.90
2022-08-07T12:53:17.384Z,30.60
2022-08-07T12:56:15.280Z,30.40
2022-08-07T12:58:46.736Z,30.40
2022-08-07T13:01:58.713Z,30.20
2022-08-07T13:04:32.530Z,30.20
2022-08-07T13:08:14.363Z,30.10
2022-08-07T13:11:04.769Z,30.20
2022-08-07T13:13:50.549Z,30.50
2022-08-07T13:16:37.345Z,30.40
2022-08-07T13:19:18.229Z,30.40
2022-08-07T13:22:19.311Z,30.30
2022-08-07T13:25:02.897Z,30.10
2022-08-07T13:28:12.433Z,30.00
2022-08-07T13:30:41.165Z,30.10
2022-08-07T13:34:33.648Z,30.10
2022-08-07T13:36:26.114Z,30.10
2022-08-07T13:39:28.566Z,30.30
2022-08-07T13:42:10.130Z,30.20
2022-08-07T13:44:39.523Z,30.10
2022-08-07T13:47:15.842Z,30.00
2022-08-07T13:50:34.309Z,30.00
2022-08-07T13:52:43.154Z,30.00
2022-08-07T13:55:19.149Z,30.20
2022-08-07T13:58:28.127Z,30.20
2022-08-07T14:01:08.782Z,30.40
2022-08-07T14:04:05.350Z,30.60
2022-08-07T14:06:38.595Z,30.60
2022-08-07T14:09:09.828Z,30.50
2022-08-07T14:12:00.152Z,30.60
2022-08-07T14:14:42.798Z,30.70
2022-08-07T14:18:12.069Z,30.60
2022-08-07T14:20:43.337Z,30.60
2022-08-07T14:23:14.385Z,30.50
2022-08-07T14:26:10.060Z,30.40
2022-08-07T14:29:06.048Z,30.40
2022-08-07T14:31:42.250Z,30.30
2022-08-07T14:34:12.301Z,30.20
2022-08-07T14:36:56.259Z,30.10
2022-08-07T14:40:14.647Z,30.10
2022-08-07T14:42:18.874Z,30.10
2022-08-07T14:44:59.931Z,30.10
2022-08-07T14:47:46.320Z,30.10
2022-08-07T14:50:19.137Z,30.20
2022-08-07T14:52:50.402Z,30.30
2022-08-07T14:55:19.967Z,30.40
2022-08-07T14:57:58.716Z,30.40
2022-08-07T15:00:34.848Z,30.50
2022-08-07T15:03:16.609Z,30.60
2022-08-07T15:05:54.825Z,30.50
2022-08-07T15:08:50.246Z,30.50
2022-08-07T15:14:25.270Z,30.50
2022-08-07T15:20:30.512Z,30.40
2022-08-07T15:22:53.609Z,30.40
2022-08-07T15:25:36.925Z,30.40
2022-08-07T15:28:31.217Z,30.40
2022-08-07T15:31:05.810Z,30.40
2022-08-07T15:33:35.994Z,30.30
2022-08-07T15:36:06.649Z,30.40
2022-08-07T15:42:45.066Z,30.30
2022-08-07T15:44:20.632Z,30.30
2022-08-07T15:46:55.244Z,30.10
2022-08-07T15:50:05.039Z,30.10
2022-08-07T15:52:30.687Z,30.20
2022-08-07T15:55:03.438Z,30.20
2022-08-07T15:57:47.593Z,30.20
2022-08-07T16:00:31.079Z,30.20
2022-08-07T16:03:04.542Z,30.10
2022-08-07T16:05:32.377Z,30.00
2022-08-07T16:08:30.424Z,30.00
2022-08-07T16:11:27.013Z,30.00
2022-08-07T16:14:06.999Z,29.90
2022-08-07T16:17:02.434Z,29.80
2022-08-07T16:20:32.913Z,29.80
2022-08-07T16:23:53.799Z,29.80
2022-08-07T16:26:30.891Z,29.80
2022-08-07T16:30:10.694Z,29.70
2022-08-07T16:32:25.465Z,29.70
2022-08-07T16:35:58.932Z,29.70
2022-08-07T16:41:57.097Z,29.60
2022-08-07T16:45:24.674Z,29.60
2022-08-07T16:48:02.674Z,29.50
2022-08-07T16:50:39.199Z,29.60
2022-08-07T16:54:02.715Z,29.50
2022-08-07T16:56:37.479Z,29.50
2022-08-07T16:59:19.419Z,29.50
2022-08-07T17:02:05.055Z,29.50
2022-08-07T17:04:57.711Z,29.40
2022-08-07T17:07:55.088Z,29.40
2022-08-07T17:10:38.319Z,29.30
2022-08-07T17:13:41.630Z,29.30
2022-08-07T17:16:39.161Z,29.30
2022-08-07T17:20:02.033Z,29.30
2022-08-07T17:22:43.545Z,29.10
2022-08-07T17:25:19.252Z,29.00
2022-08-07T17:28:06.623Z,29.10
2022-08-07T17:30:58.528Z,29.10
2022-08-07T17:34:09.021Z,29.10
2022-08-07T17:36:30.792Z,29.10
2022-08-07T17:39:19.946Z,29.00
2022-08-07T17:42:06.996Z,29.00
2022-08-07T17:44:50.361Z,28.90
2022-08-07T17:47:41.920Z,28.80
2022-08-07T17:50:31.734Z,28.80
2022-08-07T17:53:55.732Z,28.70
2022-08-07T17:56:07.156Z,28.70
2022-08-07T17:58:56.890Z,28.70
2022-08-07T18:01:44.572Z,28.70
2022-08-07T18:04:20.263Z,28.70
2022-08-07T18:07:22.636Z,28.50
2022-08-07T18:10:05.897Z,28.60
2022-08-07T18:12:52.767Z,28.40
2022-08-07T18:15:32.618Z,28.30
2022-08-07T18:18:39.640Z,28.30
2022-08-07T18:21:37.319Z,28.20
2022-08-07T18:24:33.556Z,28.10
2022-08-07T18:27:38.540Z,28.20
2022-08-07T18:30:32.691Z,28.30
2022-08-07T18:33:22.389Z,28.20
2022-08-07T18:36:12.627Z,28.10
2022-08-07T18:39:01.686Z,28.00
2022-08-07T18:41:57.433Z,27.90
2022-08-07T18:45:45.112Z,27.80
2022-08-07T18:50:05.485Z,27.60
2022-08-07T18:51:16.967Z,27.50
2022-08-07T18:54:30.979Z,27.50
2022-08-07T18:57:43.276Z,27.50
2022-08-07T19:01:00.685Z,27.30
2022-08-07T19:03:57.060Z,27.20
2022-08-07T19:06:51.552Z,27.20
2022-08-07T19:09:55.577Z,27.00
2022-08-07T19:12:34.011Z,27.10
2022-08-07T19:16:03.792Z,26.70
2022-08-07T19:18:11.641Z,26.40
2022-08-07T19:21:08.985Z,26.10
2022-08-07T19:23:58.110Z,25.90
2022-08-07T19:27:09.084Z,25.60
2022-08-07T19:30:57.029Z,25.50
2022-08-07T19:32:39.516Z,25.50
2022-08-07T19:35:12.093Z,25.40
2022-08-07T19:37:56.929Z,25.30
2022-08-07T19:40:31.407Z,25.20
2022-08-07T19:43:08.569Z,26.20
2022-08-07T19:46:05.878Z,25.10
2022-08-07T19:48:43.985Z,25.10
2022-08-07T19:51:20.434Z,25.10
2022-08-07T19:54:33.412Z,24.90
2022-08-07T19:57:51.207Z,24.90
2022-08-07T19:59:43.596Z,24.90
2022-08-07T20:02:15.748Z,25.00
2022-08-07T20:04:49.724Z,25.10
2022-08-07T20:07:23.795Z,25.40
2022-08-07T20:10:35.653Z,25.60
2022-08-07T20:12:44.855Z,25.80
2022-08-07T20:15:22.392Z,26.00
2022-08-07T20:18:01.485Z,26.20
2022-08-07T20:20:33.380Z,26.00
2022-08-07T20:23:23.219Z,26.10
2022-08-07T20:25:56.028Z,26.10
2022-08-07T20:28:29.647Z,26.10
2022-08-07T20:30:58.172Z,26.10
2022-08-07T20:33:36.607Z,26.20
2022-08-07T20:36:08.862Z,26.20
2022-08-07T20:38:59.818Z,26.20
2022-08-07T20:41:28.461Z,26.10
2022-08-07T20:44:01.920Z,26.10
2022-08-07T20:46:34.585Z,26.00
2022-08-07T20:49:59.820Z,25.80
2022-08-07T20:51:59.312Z,25.70
2022-08-07T20:54:29.777Z,25.70
2022-08-07T20:57:03.044Z,25.40
2022-08-07T21:00:07.466Z,25.30
2022-08-07T21:02:54.539Z,25.30
2022-08-07T21:05:42.790Z,25.00
2022-08-07T21:08:16.479Z,24.90
2022-08-07T21:10:50.758Z,24.60
2022-08-07T21:13:24.631Z,24.20
2022-08-07T21:16:12.276Z,24.20
2022-08-07T21:18:46.247Z,24.00
2022-08-07T21:21:21.387Z,23.80
2022-08-07T21:24:07.395Z,23.60
2022-08-07T21:27:07.019Z,23.60
2022-08-07T21:29:53.121Z,23.40
2022-08-07T21:32:47.657Z,23.30
2022-08-07T21:36:04.136Z,23.10
2022-08-07T21:38:31.331Z,23.00
2022-08-07T21:41:59.767Z,23.30
2022-08-07T21:44:44.760Z,23.40
2022-08-07T21:47:37.854Z,23.20
2022-08-07T21:50:27.531Z,22.90
2022-08-07T21:53:09.433Z,22.90
2022-08-07T21:55:47.843Z,22.80
2022-08-07T21:58:39.073Z,22.70
2022-08-07T22:02:10.088Z,22.70
2022-08-07T22:04:53.562Z,22.80
2022-08-07T22:07:31.729Z,22.50
2022-08-07T22:10:16.613Z,22.40
2022-08-07T22:12:52.732Z,22.30
2022-08-07T22:16:43.510Z,22.40
2022-08-07T22:18:32.828Z,22.50
2022-08-07T22:22:02.691Z,22.60
2022-08-07T22:24:33.032Z,22.50
2022-08-07T22:27:18.769Z,22.40
2022-08-07T22:30:12.800Z,22.30
2022-08-07T22:33:11.146Z,22.20
2022-08-07T22:35:58.311Z,21.90
2022-08-07T22:38:47.937Z,21.90
2022-08-07T22:41:22.046Z,21.90
2022-08-07T22:44:12.985Z,21.90
2022-08-07T22:47:11.417Z,21.80
2022-08-07T22:49:58.608Z,21.80
2022-08-07T22:52:39.838Z,21.60
2022-08-07T22:55:23.494Z,21.50
2022-08-07T22:58:12.150Z,21.60
2022-08-07T23:01:00.028Z,21.70
2022-08-07T23:03:58.967Z,21.60
2022-08-07T23:06:55.316Z,21.40
2022-08-07T23:10:03.396Z,21.40
2022-08-07T23:12:45.410Z,21.20
2022-08-07T23:15:22.113Z,21.30
2022-08-07T23:18:32.022Z,21.20
2022-08-07T23:21:30.238Z,21.30
2022-08-07T23:24:18.925Z,21.10
2022-08-07T23:27:07.753Z,21.30
2022-08-07T23:30:38.838Z,21.00
2022-08-07T23:34:36.093Z,20.90
2022-08-07T23:37:19.039Z,21.00
2022-08-07T23:40:04.222Z,21.00
2022-08-07T23:42:41.617Z,20.80
2022-08-07T23:46:01.539Z,20.70
2022-08-07T23:48:35.822Z,20.70
2022-08-07T23:52:58.345Z,20.90
2022-08-07T23:54:02.864Z,20.70
2022-08-07T23:56:38.874Z,20.50
